Terminal Aerodrome Forecast
Issued by NWS

Home | Current Version | Previous Version | Text Only | Print | Product List | Glossary Off
Versions: 1 2 3 4 5 6 7 8 9 10 11 12 13 14 15 16 17 18 19 20 21 22 23 24 25 26 27 28 29 30 31

000
FTUS45 KGGW 171100
TAFOLF
TAF
KOLF 171137Z 1712/1812 14008KT P6SM OVC008
     FM172100 11006KT P6SM VCSH SCT010 OVC020
     FM181000 VRB03KT P6SM SCT015 BKN030=

USA.gov is the U.S. government's official web portal to all federal, state and local government web resources and services.